Time;durP1;ratioP1;P1;durP2;ratioP2;P2;SDS_P1;SDS_P2;PMS_P1;PMS_P2;Temp;Humidity;BMP_temperature;BMP_pressure;BME280_temperature;BME280_humidity;BME280_pressure;Samples;Min_cycle;Max_cycle;Signal;HPM_P1;HPM_P2
2021/10/22 00:01:23;;;;;;;20.02;3.17;;;7.40;99.90;;;;;;5013335;28;20437;-72
2021/10/22 00:03:49;;;;;;;34.55;3.15;;;7.40;99.90;;;;;;5013100;28;20106;-72
2021/10/22 00:06:15;;;;;;;16.83;3.30;;;7.60;99.90;;;;;;5013567;28;20030;-72
2021/10/22 00:11:12;;;;;;;11.07;1.92;;;7.80;99.90;;;;;;5031755;28;20052;-70
2021/10/22 00:13:38;;;;;;;18.80;3.15;;;7.80;99.90;;;;;;5033203;28;20026;-70
2021/10/22 00:16:04;;;;;;;19.25;2.85;;;7.80;99.90;;;;;;5032849;28;20033;-70
2021/10/22 00:18:31;;;;;;;23.08;3.95;;;7.90;99.90;;;;;;5032666;28;20021;-70
2021/10/22 00:20:57;;;;;;;22.25;2.83;;;7.80;99.90;;;;;;5033106;28;20036;-70
2021/10/22 00:23:22;;;;;;;26.50;2.83;;;7.80;99.90;;;;;;5031441;28;20393;-70
2021/10/22 00:25:48;;;;;;;24.45;2.63;;;7.80;99.90;;;;;;5032988;28;20029;-70
2021/10/22 00:28:14;;;;;;;16.63;1.80;;;7.90;99.90;;;;;;5028612;28;20028;-70
2021/10/22 00:30:39;;;;;;;19.98;1.95;;;8.00;99.90;;;;;;5032170;28;20075;-70
2021/10/22 00:33:05;;;;;;;21.70;3.28;;;8.00;99.90;;;;;;5034274;28;20473;-70
2021/10/22 00:35:30;;;;;;;32.63;2.85;;;8.00;99.90;;;;;;5037286;28;20491;-70
2021/10/22 00:37:56;;;;;;;16.50;2.33;;;8.00;99.90;;;;;;5036852;28;20021;-71
2021/10/22 00:40:24;;;;;;;21.42;2.72;;;8.00;99.90;;;;;;5036853;28;20060;-70
2021/10/22 00:42:52;;;;;;;20.45;2.13;;;8.10;99.90;;;;;;5036436;28;20090;-70
2021/10/22 00:45:18;;;;;;;12.88;2.50;;;8.10;99.90;;;;;;5036520;28;20473;-70
2021/10/22 00:47:43;;;;;;;14.55;3.38;;;8.20;99.90;;;;;;5036954;28;20096;-71
2021/10/22 00:50:09;;;;;;;28.15;4.13;;;8.30;99.90;;;;;;5019020;28;20022;-71
2021/10/22 00:52:35;;;;;;;19.95;2.63;;;8.40;99.90;;;;;;5036114;28;20805;-70
2021/10/22 00:55:00;;;;;;;15.05;2.72;;;8.40;99.90;;;;;;5036513;28;20048;-71
2021/10/22 00:57:26;;;;;;;18.10;2.65;;;8.50;99.90;;;;;;5036540;28;20080;-70
2021/10/22 00:59:52;;;;;;;20.60;3.83;;;8.50;99.90;;;;;;5036376;28;20025;-70
2021/10/22 01:02:17;;;;;;;24.08;3.03;;;8.40;99.90;;;;;;5036009;28;20543;-71
2021/10/22 01:04:44;;;;;;;15.13;2.30;;;8.40;99.90;;;;;;5036583;28;20393;-71
2021/10/22 01:07:13;;;;;;;17.60;2.30;;;8.20;99.90;;;;;;5036259;28;20056;-70
2021/10/22 01:09:39;;;;;;;20.33;2.55;;;8.20;99.90;;;;;;5036489;28;20057;-71
2021/10/22 01:12:05;;;;;;;14.48;2.33;;;8.30;99.90;;;;;;5035316;28;20053;-70
2021/10/22 01:14:31;;;;;;;15.07;2.65;;;8.40;99.90;;;;;;5035294;28;20108;-70
2021/10/22 01:16:57;;;;;;;10.77;2.38;;;8.40;99.90;;;;;;5030972;28;20036;-71
2021/10/22 01:19:23;;;;;;;17.20;2.75;;;8.50;99.90;;;;;;5036251;28;20029;-71
2021/10/22 01:21:49;;;;;;;25.00;3.95;;;8.50;99.90;;;;;;5026253;28;20112;-70
2021/10/22 01:24:16;;;;;;;17.05;2.35;;;8.50;99.90;;;;;;5016177;28;20041;-71
2021/10/22 01:26:42;;;;;;;17.25;1.83;;;8.60;99.90;;;;;;5018661;28;20390;-71
2021/10/22 01:29:08;;;;;;;31.10;3.22;;;8.50;99.90;;;;;;5036058;28;20048;-71
2021/10/22 01:31:34;;;;;;;15.32;1.92;;;8.50;99.90;;;;;;5033392;28;20025;-71
2021/10/22 01:33:59;;;;;;;23.38;2.50;;;8.60;99.90;;;;;;5015623;28;20496;-70
2021/10/22 01:36:26;;;;;;;15.77;2.67;;;8.60;99.90;;;;;;5016195;28;20390;-70
2021/10/22 01:38:52;;;;;;;22.40;2.33;;;8.70;99.90;;;;;;5032869;28;20034;-71
2021/10/22 01:41:18;;;;;;;19.58;2.17;;;8.80;99.90;;;;;;5035939;28;20113;-71
2021/10/22 01:43:44;;;;;;;17.38;2.53;;;8.80;99.90;;;;;;5017243;28;20489;-71
2021/10/22 01:46:10;;;;;;;7.03;1.25;;;8.90;99.90;;;;;;5035718;28;20473;-71
2021/10/22 01:48:37;;;;;;;16.48;1.85;;;8.90;99.90;;;;;;5035209;28;20017;-71
2021/10/22 01:51:04;;;;;;;9.40;1.33;;;8.70;99.90;;;;;;5035615;28;20017;-71
2021/10/22 01:53:30;;;;;;;10.95;2.28;;;8.60;99.90;;;;;;5035623;28;20041;-71
2021/10/22 01:55:55;;;;;;;8.20;1.38;;;8.60;99.90;;;;;;5035468;28;20026;-71
2021/10/22 01:58:21;;;;;;;14.73;2.17;;;8.60;99.90;;;;;;5035582;28;20033;-71
2021/10/22 02:00:47;;;;;;;13.65;3.53;;;8.60;99.90;;;;;;5032792;28;20121;-70
2021/10/22 02:03:13;;;;;;;13.57;1.40;;;8.50;99.90;;;;;;5031143;28;20026;-71
2021/10/22 02:05:39;;;;;;;14.18;1.85;;;8.50;99.90;;;;;;5035370;28;20022;-72
2021/10/22 02:08:04;;;;;;;16.02;2.13;;;8.40;99.90;;;;;;5017327;28;20029;-71
2021/10/22 02:10:30;;;;;;;19.88;2.45;;;8.40;99.90;;;;;;5015546;28;20036;-71
2021/10/22 02:12:57;;;;;;;10.88;2.33;;;8.40;99.90;;;;;;5030707;28;20388;-71
2021/10/22 02:15:23;;;;;;;8.32;1.40;;;8.40;99.90;;;;;;5035269;28;20021;-72
2021/10/22 02:17:50;;;;;;;8.40;1.50;;;8.50;99.90;;;;;;5028632;28;20104;-71
2021/10/22 02:20:16;;;;;;;13.43;2.13;;;8.60;99.90;;;;;;5014839;28;20018;-71
2021/10/22 02:22:41;;;;;;;12.38;1.50;;;8.60;99.90;;;;;;5025164;28;20477;-71
2021/10/22 02:25:07;;;;;;;10.15;1.52;;;8.70;99.90;;;;;;5035368;28;20030;-71
2021/10/22 02:27:34;;;;;;;28.60;2.13;;;8.70;99.90;;;;;;5034692;28;20033;-69
2021/10/22 02:29:59;;;;;;;14.02;2.53;;;8.60;99.90;;;;;;5035235;28;20021;-69
2021/10/22 02:32:25;;;;;;;13.02;2.72;;;7.80;99.90;;;;;;5034951;28;20026;-69
2021/10/22 02:34:50;;;;;;;13.70;1.85;;;7.50;99.90;;;;;;5016863;28;20085;-69
2021/10/22 02:37:16;;;;;;;13.18;1.98;;;7.30;99.90;;;;;;5015078;28;20051;-70
2021/10/22 02:39:42;;;;;;;9.77;1.92;;;7.10;99.90;;;;;;5027992;28;20025;-69
2021/10/22 02:42:07;;;;;;;21.05;2.88;;;7.00;99.90;;;;;;5034822;28;20464;-69
2021/10/22 02:44:34;;;;;;;10.93;2.08;;;7.00;99.90;;;;;;5030113;28;20065;-70
2021/10/22 02:46:59;;;;;;;19.95;2.03;;;7.00;99.90;;;;;;5029366;28;20029;-70
2021/10/22 02:49:26;;;;;;;14.43;2.80;;;7.00;99.90;;;;;;5034695;28;20311;-70
2021/10/22 02:51:54;;;;;;;14.00;1.90;;;6.90;99.90;;;;;;5034896;28;20045;-70
2021/10/22 02:54:21;;;;;;;30.48;2.53;;;6.90;99.90;;;;;;5033275;28;20021;-70
2021/10/22 02:56:47;;;;;;;18.08;3.15;;;6.90;99.90;;;;;;5033051;28;20060;-69
2021/10/22 02:59:13;;;;;;;21.20;2.50;;;7.00;99.90;;;;;;5034837;28;20057;-70
2021/10/22 03:01:38;;;;;;;23.27;2.60;;;7.00;99.90;;;;;;5034195;28;20057;-70
2021/10/22 03:04:04;;;;;;;19.52;2.15;;;7.00;99.90;;;;;;5036657;28;20024;-69
2021/10/22 03:06:30;;;;;;;28.13;4.60;;;7.00;99.90;;;;;;5053823;28;20029;-69
2021/10/22 03:08:56;;;;;;;15.18;2.33;;;7.10;99.90;;;;;;5028064;28;20025;-69
2021/10/22 03:11:21;;;;;;;16.38;2.85;;;7.10;99.90;;;;;;5014494;28;20036;-70
2021/10/22 03:13:47;;;;;;;23.48;2.45;;;7.10;99.90;;;;;;5014397;28;20105;-70
2021/10/22 03:16:13;;;;;;;11.77;2.05;;;7.10;99.90;;;;;;5014341;28;20017;-70
2021/10/22 03:18:39;;;;;;;33.40;3.75;;;7.20;99.90;;;;;;4996723;28;20030;-70
2021/10/22 03:21:05;;;;;;;28.67;3.17;;;7.20;99.90;;;;;;5027448;28;20021;-70
2021/10/22 03:23:31;;;;;;;15.85;2.75;;;7.30;99.90;;;;;;5033908;28;20021;-70
2021/10/22 03:25:56;;;;;;;23.08;3.20;;;7.10;99.90;;;;;;5034118;28;20021;-70
2021/10/22 03:28:22;;;;;;;18.17;2.60;;;7.10;99.90;;;;;;5033821;28;20029;-70
2021/10/22 03:30:47;;;;;;;18.33;2.63;;;7.10;99.90;;;;;;5033827;28;20587;-70
2021/10/22 03:33:14;;;;;;;19.15;2.53;;;7.10;99.90;;;;;;5033068;28;20095;-69
2021/10/22 03:35:39;;;;;;;18.15;2.13;;;7.10;99.90;;;;;;5033807;28;20167;-70
2021/10/22 03:38:05;;;;;;;17.13;2.88;;;7.10;99.90;;;;;;5033648;28;20493;-70
2021/10/22 03:40:31;;;;;;;24.92;2.97;;;7.10;99.90;;;;;;5033638;28;20025;-70
2021/10/22 03:42:57;;;;;;;19.42;3.05;;;7.20;99.90;;;;;;5033940;28;20532;-70
2021/10/22 03:45:25;;;;;;;21.52;2.92;;;7.20;99.90;;;;;;5033267;28;20041;-70
2021/10/22 03:47:52;;;;;;;27.25;3.22;;;7.20;99.90;;;;;;5033123;28;20026;-70
2021/10/22 03:50:18;;;;;;;26.50;3.65;;;7.20;99.90;;;;;;5033462;28;20033;-70
2021/10/22 03:52:44;;;;;;;46.92;4.03;;;7.30;99.90;;;;;;5033511;28;20096;-70
2021/10/22 03:55:10;;;;;;;29.98;4.20;;;7.50;99.90;;;;;;5033711;28;20066;-70
2021/10/22 03:57:36;;;;;;;31.58;4.30;;;7.60;99.90;;;;;;5033068;28;20029;-70
2021/10/22 04:00:05;;;;;;;27.35;4.10;;;7.70;99.90;;;;;;5021704;28;20057;-70
2021/10/22 04:02:30;;;;;;;26.38;3.05;;;7.80;99.90;;;;;;5015665;28;20113;-70
2021/10/22 04:04:56;;;;;;;36.90;3.13;;;7.80;99.90;;;;;;5013887;28;20068;-70
2021/10/22 04:07:22;;;;;;;25.73;3.83;;;8.00;99.90;;;;;;5031838;28;20098;-70
2021/10/22 04:09:48;;;;;;;22.10;4.25;;;8.10;99.90;;;;;;5033099;28;20501;-70
2021/10/22 04:12:13;;;;;;;40.90;4.25;;;8.20;99.90;;;;;;5023457;28;20037;-70
2021/10/22 04:14:39;;;;;;;33.40;4.10;;;8.20;99.90;;;;;;4995299;28;20025;-70
2021/10/22 04:17:05;;;;;;;45.20;5.25;;;8.20;99.90;;;;;;5017137;28;20041;-70
2021/10/22 04:19:30;;;;;;;28.90;4.82;;;8.30;99.90;;;;;;5033107;28;20029;-71
2021/10/22 04:21:56;;;;;;;17.67;3.00;;;8.40;99.90;;;;;;5030772;28;20373;-70
2021/10/22 04:24:22;;;;;;;11.63;2.00;;;8.40;99.90;;;;;;5028808;28;20489;-70
2021/10/22 04:26:48;;;;;;;13.90;2.63;;;8.20;99.90;;;;;;5033299;28;20029;-70
2021/10/22 04:29:14;;;;;;;20.13;2.83;;;8.00;99.90;;;;;;5017982;28;20762;-70
2021/10/22 04:31:40;;;;;;;20.17;2.70;;;7.90;99.90;;;;;;5016227;28;20389;-71
2021/10/22 04:34:06;;;;;;;29.45;3.55;;;7.90;99.90;;;;;;5013555;28;20026;-70
2021/10/22 04:36:31;;;;;;;29.95;4.20;;;7.90;99.90;;;;;;5029402;28;20048;-70
2021/10/22 04:41:41;;;;;;;;;;;8.10;99.90;;;;;;5033743;28;20044;-70
2021/10/22 04:44:07;;;;;;;25.25;4.43;;;8.10;99.90;;;;;;5015062;28;20360;-70
2021/10/22 04:46:32;;;;;;;15.85;2.90;;;8.00;99.90;;;;;;5032328;28;20033;-70
2021/10/22 04:48:58;;;;;;;21.90;3.95;;;8.00;99.90;;;;;;5026252;28;20018;-70
2021/10/22 04:51:23;;;;;;;23.85;2.95;;;7.90;99.90;;;;;;5015868;28;20034;-70
2021/10/22 04:53:49;;;;;;;24.95;4.25;;;7.90;99.90;;;;;;5031618;28;20060;-70
2021/10/22 04:56:15;;;;;;;26.77;3.58;;;7.90;99.90;;;;;;5032237;28;20370;-70
2021/10/22 04:58:40;;;;;;;27.20;3.13;;;8.00;99.90;;;;;;5032816;28;20091;-70
2021/10/22 05:01:06;;;;;;;38.88;4.25;;;8.00;99.90;;;;;;5029883;28;20045;-70
2021/10/22 05:03:32;;;;;;;44.88;4.22;;;8.00;99.90;;;;;;5032821;28;20029;-70
2021/10/22 05:05:57;;;;;;;25.90;4.05;;;8.10;99.90;;;;;;5032010;28;20037;-70
2021/10/22 05:08:23;;;;;;;41.03;4.78;;;8.10;99.90;;;;;;5032707;28;20104;-70
2021/10/22 05:10:48;;;;;;;37.58;5.57;;;8.20;99.90;;;;;;5032610;28;20041;-70
2021/10/22 05:13:14;;;;;;;24.00;3.88;;;8.10;99.90;;;;;;5032344;28;20083;-70
2021/10/22 05:15:40;;;;;;;24.17;2.95;;;8.20;99.90;;;;;;5033079;28;20026;-71
2021/10/22 05:18:06;;;;;;;17.05;3.42;;;8.20;99.90;;;;;;5031118;28;20029;-70
2021/10/22 05:20:31;;;;;;;15.15;3.28;;;8.20;99.90;;;;;;5035284;28;20018;-70
2021/10/22 05:22:57;;;;;;;16.25;2.80;;;8.30;99.90;;;;;;5033800;28;20113;-70
2021/10/22 05:25:23;;;;;;;15.88;2.55;;;8.40;99.90;;;;;;5036268;28;20029;-70
2021/10/22 05:27:50;;;;;;;19.27;3.45;;;8.60;99.90;;;;;;5031858;28;20100;-70
2021/10/22 05:30:16;;;;;;;18.50;2.88;;;8.70;99.90;;;;;;5016344;28;20018;-70
2021/10/22 05:32:42;;;;;;;15.77;2.83;;;8.60;99.90;;;;;;5031179;28;20032;-70
2021/10/22 05:35:09;;;;;;;16.85;2.22;;;8.40;99.90;;;;;;5035369;28;20022;-69
2021/10/22 05:37:36;;;;;;;20.48;2.83;;;8.10;99.90;;;;;;5033700;28;20468;-69
2021/10/22 05:40:02;;;;;;;17.33;2.50;;;8.00;99.90;;;;;;5036174;28;20033;-69
2021/10/22 05:42:28;;;;;;;16.13;3.53;;;7.80;99.90;;;;;;5036133;28;20382;-69
2021/10/22 05:44:54;;;;;;;29.27;4.00;;;7.80;99.90;;;;;;5035226;28;20029;-70
2021/10/22 05:47:19;;;;;;;16.33;2.50;;;7.80;99.90;;;;;;5035477;28;20030;-70
2021/10/22 05:49:45;;;;;;;43.60;6.18;;;7.80;99.90;;;;;;5020127;28;20062;-69
2021/10/22 05:52:10;;;;;;;22.95;3.25;;;7.80;99.90;;;;;;5015955;28;20473;-70
2021/10/22 05:54:36;;;;;;;21.95;3.25;;;7.60;99.90;;;;;;5024524;28;20101;-70
2021/10/22 05:57:02;;;;;;;42.50;5.47;;;7.60;99.90;;;;;;5031152;28;20088;-70
2021/10/22 05:59:28;;;;;;;30.00;2.95;;;7.50;99.90;;;;;;5035240;28;20029;-70
2021/10/22 06:01:53;;;;;;;28.58;3.75;;;7.40;99.90;;;;;;5035462;28;20551;-69
2021/10/22 06:04:19;;;;;;;37.25;3.92;;;7.40;99.90;;;;;;5036041;28;20033;-69
2021/10/22 06:06:44;;;;;;;39.70;4.30;;;7.50;99.90;;;;;;5034747;28;20037;-69
2021/10/22 06:09:12;;;;;;;40.47;4.93;;;7.50;99.90;;;;;;5035076;28;20037;-69
2021/10/22 06:11:38;;;;;;;49.42;5.45;;;7.50;99.90;;;;;;5036014;28;20109;-69
2021/10/22 06:14:05;;;;;;;28.48;4.00;;;7.50;99.90;;;;;;5035370;28;20060;-69
2021/10/22 06:16:30;;;;;;;34.70;5.53;;;7.60;99.90;;;;;;5034476;28;20067;-69
2021/10/22 06:19:01;;;;;;;40.55;5.40;;;7.50;99.90;;;;;;5035716;28;20033;-69
2021/10/22 06:21:36;;;;;;;42.40;4.78;;;7.50;99.90;;;;;;5035178;28;20049;-69
2021/10/22 06:24:03;;;;;;;43.67;5.85;;;7.50;99.90;;;;;;5035284;28;20025;-69
2021/10/22 06:26:32;;;;;;;45.33;4.57;;;7.60;99.90;;;;;;5034835;28;20508;-69
2021/10/22 06:28:59;;;;;;;43.10;3.53;;;7.60;99.90;;;;;;5035273;28;20113;-69
2021/10/22 06:31:25;;;;;;;23.55;2.85;;;7.50;99.90;;;;;;5034376;28;20022;-69
2021/10/22 06:33:51;;;;;;;37.08;4.97;;;7.50;99.90;;;;;;5035241;28;20384;-69
2021/10/22 06:36:17;;;;;;;30.40;2.80;;;7.50;99.90;;;;;;5034852;28;20029;-69
2021/10/22 06:38:43;;;;;;;31.08;3.20;;;7.40;99.90;;;;;;5034908;28;20100;-69
2021/10/22 06:41:09;;;;;;;22.33;2.65;;;7.40;99.90;;;;;;5034225;28;20113;-69
2021/10/22 06:43:39;;;;;;;35.45;3.08;;;7.40;99.90;;;;;;5018587;28;20029;-69
2021/10/22 06:46:05;;;;;;;21.60;2.65;;;7.40;99.90;;;;;;5016937;28;20022;-69
2021/10/22 06:48:31;;;;;;;34.22;3.67;;;7.40;99.90;;;;;;5015050;28;20022;-69
2021/10/22 06:50:57;;;;;;;26.80;3.63;;;7.50;99.90;;;;;;5020353;28;20649;-69
2021/10/22 06:53:23;;;;;;;38.92;4.65;;;7.50;99.90;;;;;;5034628;28;20033;-69
2021/10/22 06:55:49;;;;;;;46.80;4.63;;;7.50;99.90;;;;;;5033728;28;20028;-69
2021/10/22 06:58:15;;;;;;;24.92;3.17;;;7.60;99.90;;;;;;5034796;28;20033;-69
2021/10/22 07:00:45;;;;;;;34.05;3.65;;;7.60;99.90;;;;;;5034300;28;20026;-69
2021/10/22 07:03:15;;;;;;;36.05;4.05;;;7.70;99.90;;;;;;5034976;28;20525;-69
2021/10/22 07:08:09;;;;;;;33.80;5.45;;;7.70;99.90;;;;;;5032233;28;20014;-69
2021/10/22 07:10:35;;;;;;;40.33;4.47;;;7.80;99.90;;;;;;5033611;28;20599;-69
2021/10/22 07:13:02;;;;;;;47.85;6.18;;;7.90;99.90;;;;;;5034072;28;20033;-69
2021/10/22 07:15:28;;;;;;;34.33;3.47;;;8.00;99.90;;;;;;5033096;28;20088;-69
2021/10/22 07:17:56;;;;;;;30.50;4.32;;;8.10;99.90;;;;;;5016446;28;20029;-69
2021/10/22 07:20:25;;;;;;;28.42;4.20;;;8.20;99.90;;;;;;5014489;28;20018;-69
2021/10/22 07:22:51;;;;;;;28.20;3.72;;;8.20;99.90;;;;;;5030778;28;20014;-69
2021/10/22 07:25:21;;;;;;;25.48;3.10;;;8.10;99.90;;;;;;5034003;28;20033;-70
2021/10/22 07:27:48;;;;;;;34.42;3.10;;;8.10;99.90;;;;;;5033917;28;20025;-69
2021/10/22 07:30:15;;;;;;;19.17;2.75;;;8.00;99.90;;;;;;5033963;28;20052;-70
2021/10/22 07:32:41;;;;;;;14.48;2.65;;;7.90;99.90;;;;;;5033848;28;20104;-69
2021/10/22 07:35:08;;;;;;;26.42;2.72;;;8.00;99.90;;;;;;5033367;28;20021;-70
2021/10/22 07:37:34;;;;;;;27.85;2.85;;;7.90;99.90;;;;;;5033832;28;20037;-70
2021/10/22 07:40:01;;;;;;;29.27;3.40;;;7.90;99.90;;;;;;5033939;28;20392;-70
2021/10/22 07:42:27;;;;;;;23.30;2.65;;;8.10;99.90;;;;;;5033218;28;20104;-69
2021/10/22 07:44:55;;;;;;;38.25;3.78;;;8.20;99.90;;;;;;5033656;28;20033;-70
2021/10/22 07:47:24;;;;;;;29.27;3.50;;;8.30;99.90;;;;;;5032982;28;20075;-69
2021/10/22 07:49:54;;;;;;;20.08;2.67;;;8.40;99.90;;;;;;5033536;28;20028;-69
2021/10/22 07:52:23;;;;;;;13.18;2.35;;;8.30;99.90;;;;;;5023869;28;20049;-69
2021/10/22 07:54:50;;;;;;;6.47;1.10;;;8.10;99.90;;;;;;5013766;28;20049;-69
2021/10/22 07:57:16;;;;;;;4.28;0.90;;;7.80;99.90;;;;;;5019532;28;20026;-69
2021/10/22 07:59:41;;;;;;;6.20;0.80;;;7.70;99.90;;;;;;5033334;28;20079;-69
2021/10/22 08:02:14;;;;;;;7.80;1.17;;;7.60;99.90;;;;;;5033269;28;20108;-69
2021/10/22 08:04:45;;;;;;;21.13;2.23;;;7.60;99.90;;;;;;5033378;28;20032;-70
2021/10/22 08:07:12;;;;;;;15.70;2.13;;;7.70;99.90;;;;;;5033088;28;20036;-69
2021/10/22 08:09:41;;;;;;;18.38;2.67;;;7.80;99.90;;;;;;5033021;28;20465;-69
2021/10/22 08:12:07;;;;;;;25.02;2.55;;;8.00;99.90;;;;;;5032583;28;20021;-70
2021/10/22 08:14:33;;;;;;;38.58;3.45;;;8.00;99.90;;;;;;5033484;28;20018;-70
2021/10/22 08:17:00;;;;;;;24.33;2.63;;;8.00;99.90;;;;;;5033198;28;20030;-70
2021/10/22 08:19:26;;;;;;;31.50;3.67;;;8.10;99.90;;;;;;5033161;28;20502;-70
2021/10/22 08:24:35;;;;;;;25.40;2.78;;;8.30;99.90;;;;;;5033231;28;20040;-70
2021/10/22 08:27:01;;;;;;;28.52;3.15;;;8.40;99.90;;;;;;5030145;28;20041;-70
2021/10/22 08:29:27;;;;;;;30.27;3.42;;;8.50;99.90;;;;;;5014470;28;20026;-70
2021/10/22 08:31:53;;;;;;;31.95;2.80;;;8.60;99.90;;;;;;5032508;28;20029;-70
2021/10/22 08:34:19;;;;;;;16.83;3.08;;;8.80;99.90;;;;;;5032806;28;20062;-70
2021/10/22 08:36:46;;;;;;;21.02;3.10;;;8.80;99.90;;;;;;5029474;28;20058;-70
2021/10/22 08:39:12;;;;;;;33.83;3.13;;;8.80;99.90;;;;;;5013197;28;20099;-70
2021/10/22 08:41:39;;;;;;;26.63;2.40;;;8.80;99.90;;;;;;5013637;28;20835;-69
2021/10/22 08:44:05;;;;;;;22.92;3.47;;;8.80;99.90;;;;;;5014538;28;20034;-69
2021/10/22 08:46:34;;;;;;;24.25;3.30;;;8.80;99.90;;;;;;4995542;28;20034;-70
2021/10/22 08:49:00;;;;;;;31.50;3.22;;;8.70;99.90;;;;;;5027094;28;20021;-69
2021/10/22 08:51:26;;;;;;;24.00;2.72;;;8.50;99.90;;;;;;5033173;28;20033;-69
2021/10/22 08:53:52;;;;;;;14.15;2.80;;;8.30;99.90;;;;;;5032357;28;20018;-69
2021/10/22 08:56:18;;;;;;;18.67;3.20;;;8.30;99.90;;;;;;5036789;28;20026;-69
2021/10/22 08:58:45;;;;;;;32.85;3.90;;;8.20;99.90;;;;;;5036750;28;20400;-69
2021/10/22 09:01:10;;;;;;;20.15;2.83;;;8.20;99.90;;;;;;5036502;28;20028;-70
2021/10/22 09:03:39;;;;;;;16.55;2.10;;;8.10;99.90;;;;;;5035860;28;20026;-69
2021/10/22 09:06:17;;;;;;;20.08;2.58;;;8.10;99.90;;;;;;5018786;28;20025;-70
2021/10/22 09:08:52;;;;;;;20.50;2.63;;;8.10;99.90;;;;;;5036675;28;20022;-70
2021/10/22 09:11:32;;;;;;;39.30;3.22;;;8.10;99.90;;;;;;5036813;28;20112;-70
2021/10/22 09:14:13;;;;;;;28.05;3.00;;;8.10;99.90;;;;;;5036493;28;20054;-70
2021/10/22 09:16:41;;;;;;;15.45;2.25;;;8.00;99.90;;;;;;5036097;28;20025;-70
2021/10/22 09:19:06;;;;;;;25.77;2.85;;;7.90;99.90;;;;;;5036325;28;20029;-70
2021/10/22 09:21:33;;;;;;;26.63;2.13;;;7.90;99.90;;;;;;5036240;28;20033;-70
2021/10/22 09:24:15;;;;;;;26.65;2.45;;;8.00;99.90;;;;;;5036076;28;20100;-70
2021/10/22 09:26:49;;;;;;;32.55;3.10;;;8.30;99.90;;;;;;5036309;28;20414;-70
2021/10/22 09:29:21;;;;;;;10.15;1.52;;;8.50;99.90;;;;;;5017886;28;20128;-70
2021/10/22 09:31:49;;;;;;;11.15;1.60;;;8.50;99.90;;;;;;5035988;28;20026;-70
2021/10/22 09:34:34;;;;;;;9.52;1.58;;;8.50;99.90;;;;;;5036119;28;20052;-70
2021/10/22 09:37:02;;;;;;;3.97;1.33;;;8.60;99.90;;;;;;5033785;28;20382;-70
2021/10/22 09:39:36;;;;;;;4.07;1.02;;;8.90;99.90;;;;;;5017379;28;20028;-70
2021/10/22 09:42:03;;;;;;;5.97;1.15;;;8.90;99.90;;;;;;5035549;28;20428;-70
2021/10/22 09:44:40;;;;;;;8.05;1.33;;;8.70;99.90;;;;;;5018733;28;20029;-70
2021/10/22 09:47:06;;;;;;;5.25;1.10;;;8.50;99.90;;;;;;5030981;28;20439;-70
2021/10/22 09:49:47;;;;;;;3.90;1.05;;;8.40;99.90;;;;;;5035992;28;20022;-70
2021/10/22 09:52:18;;;;;;;3.83;1.13;;;8.50;99.90;;;;;;5035741;28;20022;-70
2021/10/22 09:54:46;;;;;;;8.80;0.95;;;8.70;99.90;;;;;;5036062;28;20529;-70
2021/10/22 09:57:15;;;;;;;11.23;0.70;;;8.50;99.90;;;;;;5020776;28;20064;-70
2021/10/22 09:59:41;;;;;;;3.65;0.70;;;8.30;99.90;;;;;;5015745;28;20033;-70
2021/10/22 10:02:09;;;;;;;2.83;0.70;;;8.30;99.90;;;;;;5035283;28;20029;-71
2021/10/22 10:04:36;;;;;;;5.75;1.00;;;8.10;99.90;;;;;;5035271;28;20481;-72
2021/10/22 10:07:04;;;;;;;5.82;0.88;;;8.00;99.90;;;;;;5035265;28;20033;-69
2021/10/22 10:09:30;;;;;;;4.68;1.13;;;8.20;99.90;;;;;;5034977;28;20034;-69
2021/10/22 10:12:00;;;;;;;15.75;1.40;;;8.30;99.90;;;;;;5035192;28;20028;-69
2021/10/22 10:14:27;;;;;;;1.95;0.90;;;8.50;99.90;;;;;;5035524;28;20018;-69
2021/10/22 10:16:54;;;;;;;8.35;2.63;;;8.80;99.90;;;;;;5017803;28;20036;-69
2021/10/22 10:19:45;;;;;;;6.25;1.52;;;9.10;99.90;;;;;;5035487;28;20075;-69
2021/10/22 10:22:13;;;;;;;5.50;0.90;;;9.30;99.90;;;;;;5035620;28;20394;-69
2021/10/22 10:24:42;;;;;;;12.82;7.55;;;9.00;99.90;;;;;;5035189;28;20037;-69
2021/10/22 10:27:11;;;;;;;12.82;4.20;;;8.70;99.90;;;;;;5029521;28;20040;-68
2021/10/22 10:29:43;;;;;;;12.88;2.88;;;8.40;99.90;;;;;;5023905;28;20044;-68
2021/10/22 10:32:12;;;;;;;13.50;4.93;;;8.30;99.90;;;;;;5017824;28;20384;-68
2021/10/22 10:34:49;;;;;;;11.35;3.13;;;8.20;99.90;;;;;;5030038;28;20450;-69
2021/10/22 10:37:32;;;;;;;3.83;1.25;;;8.30;99.90;;;;;;5019532;28;20077;-69
2021/10/22 10:40:12;;;;;;;20.75;3.03;;;8.10;99.90;;;;;;5027054;28;20458;-68
2021/10/22 10:42:54;;;;;;;4.60;1.30;;;8.00;99.90;;;;;;5021298;28;20065;-68
2021/10/22 10:45:26;;;;;;;5.90;2.15;;;8.10;99.90;;;;;;5030973;28;20017;-69
2021/10/22 10:47:56;;;;;;;7.78;1.50;;;8.20;99.90;;;;;;5026877;28;20061;-69
2021/10/22 10:50:49;;;;;;;24.58;8.27;;;8.40;99.90;;;;;;5025327;28;20022;-70
2021/10/22 10:53:18;;;;;;;14.70;7.22;;;8.40;99.90;;;;;;5025310;28;20112;-69
2021/10/22 10:55:46;;;;;;;14.75;7.65;;;8.30;99.90;;;;;;5028736;28;20048;-69
2021/10/22 10:58:18;;;;;;;5.68;2.85;;;8.30;99.90;;;;;;5027371;28;20026;-69
2021/10/22 11:00:52;;;;;;;9.43;4.88;;;8.50;99.90;;;;;;5023768;28;20392;-70
2021/10/22 11:03:38;;;;;;;3.88;2.08;;;8.60;99.90;;;;;;5022090;28;20096;-68
2021/10/22 11:06:06;;;;;;;26.83;11.35;;;8.70;99.90;;;;;;5023233;28;20037;-67
2021/10/22 11:08:31;;;;;;;4.47;1.25;;;8.90;99.90;;;;;;5025490;28;20478;-66
2021/10/22 11:14:15;;;;;;;9.65;2.15;;;9.10;99.90;;;;;;5016237;28;20088;-66
2021/10/22 11:16:53;;;;;;;7.03;1.48;;;9.20;99.90;;;;;;5029330;28;20061;-66
2021/10/22 11:19:40;;;;;;;1.80;1.00;;;9.30;99.90;;;;;;5025248;28;20021;-66
2021/10/22 11:22:18;;;;;;;7.97;1.73;;;9.20;99.90;;;;;;5029523;28;20075;-66
2021/10/22 11:24:45;;;;;;;7.35;0.82;;;9.30;99.90;;;;;;5027010;28;20025;-67
2021/10/22 11:27:12;;;;;;;7.97;1.35;;;9.30;99.90;;;;;;5024584;28;20025;-66
2021/10/22 11:29:41;;;;;;;16.27;4.13;;;9.30;99.90;;;;;;5021088;28;20151;-66
2021/10/22 11:32:15;;;;;;;15.85;2.65;;;9.40;99.90;;;;;;5023684;28;20164;-67
2021/10/22 11:34:52;;;;;;;4.45;1.42;;;9.60;99.90;;;;;;5028239;28;20021;-66
2021/10/22 11:37:24;;;;;;;4.28;1.00;;;9.90;99.90;;;;;;5023431;28;20033;-66
2021/10/22 11:39:52;;;;;;;8.90;2.33;;;10.30;99.90;;;;;;5024351;28;20040;-66
2021/10/22 11:42:27;;;;;;;3.05;1.48;;;10.40;99.90;;;;;;5022569;28;20026;-66
2021/10/22 11:45:05;;;;;;;7.95;1.60;;;10.00;99.90;;;;;;5028867;28;20032;-66
2021/10/22 11:47:41;;;;;;;5.13;2.00;;;9.40;99.90;;;;;;5018344;28;20116;-66
2021/10/22 11:50:27;;;;;;;9.00;1.90;;;8.80;99.90;;;;;;5029006;28;20026;-66
2021/10/22 11:53:11;;;;;;;25.67;5.63;;;8.50;99.90;;;;;;5013245;28;20022;-66
2021/10/22 11:55:41;;;;;;;10.68;2.00;;;8.10;99.90;;;;;;5027638;28;20021;-68
2021/10/22 11:58:08;;;;;;;9.20;6.15;;;7.80;99.90;;;;;;5027356;28;20025;-68
2021/10/22 12:00:35;;;;;;;9.38;3.35;;;7.60;99.90;;;;;;5026460;28;20071;-68
2021/10/22 12:03:00;;;;;;;10.15;2.30;;;7.40;99.90;;;;;;5032526;28;20071;-68
2021/10/22 12:05:27;;;;;;;1.33;0.90;;;7.40;99.90;;;;;;5027335;28;20100;-68
2021/10/22 12:07:56;;;;;;;5.03;0.85;;;7.30;99.90;;;;;;5032729;28;20028;-68
2021/10/22 12:10:22;;;;;;;4.28;0.88;;;7.30;99.90;;;;;;5121625;23;20045;-73
2021/10/22 12:12:51;;;;;;;5.15;0.60;;;7.30;99.90;;;;;;5032685;28;20041;-73
2021/10/22 12:15:25;;;;;;;5.50;0.90;;;7.40;99.90;;;;;;5032762;28;20542;-72
2021/10/22 12:17:59;;;;;;;6.88;0.93;;;7.90;99.90;;;;;;5032664;28;20033;-73
2021/10/22 12:20:25;;;;;;;5.38;1.33;;;8.10;99.90;;;;;;5032163;28;20488;-73
2021/10/22 12:22:58;;;;;;;28.25;2.40;;;8.20;99.90;;;;;;5032524;28;20049;-73
2021/10/22 12:25:29;;;;;;;8.70;1.97;;;8.50;99.90;;;;;;5031416;28;20021;-73
2021/10/22 12:27:57;;;;;;;6.13;1.20;;;9.00;99.90;;;;;;5033386;28;20104;-73
2021/10/22 12:30:28;;;;;;;10.18;1.92;;;9.50;99.90;;;;;;5038622;28;20049;-72
2021/10/22 12:33:15;;;;;;;6.55;1.40;;;9.90;99.90;;;;;;5038998;28;20016;-73
2021/10/22 12:35:47;;;;;;;3.25;1.27;;;10.40;99.90;;;;;;5039217;28;20409;-73
2021/10/22 12:38:17;;;;;;;9.90;1.42;;;10.80;99.90;;;;;;5039128;28;20017;-74
2021/10/22 12:40:53;;;;;;;4.68;1.30;;;11.10;99.90;;;;;;5027348;28;20032;-74
2021/10/22 12:43:23;;;;;;;11.75;2.45;;;11.40;99.90;;;;;;5039068;28;20109;-74
2021/10/22 12:45:50;;;;;;;13.70;1.55;;;11.70;99.90;;;;;;5038535;28;20025;-74
2021/10/22 12:48:18;;;;;;;23.30;1.40;;;11.70;99.90;;;;;;5038982;28;20056;-73
2021/10/22 12:50:45;;;;;;;13.13;1.67;;;12.00;99.90;;;;;;5038907;28;20017;-73
2021/10/22 12:53:14;;;;;;;15.88;2.13;;;12.10;99.90;;;;;;5039033;28;20025;-73
2021/10/22 12:55:41;;;;;;;7.07;1.92;;;12.00;99.90;;;;;;5038812;28;20021;-72
2021/10/22 12:58:21;;;;;;;12.60;2.33;;;12.20;99.90;;;;;;5038436;28;20026;-72
2021/10/22 13:01:11;;;;;;;23.70;6.10;;;12.20;99.90;;;;;;5039047;28;20017;-73
2021/10/22 13:03:38;;;;;;;10.52;2.55;;;12.10;99.90;;;;;;5039005;28;20033;-71
2021/10/22 13:06:13;;;;;;;3.83;0.80;;;10.50;99.90;;;;;;5038710;28;20108;-71